sensor_id;sensor_type;location;lat;lon;timestamp;temperature;humidity
19755;DHT22;10036;47.812;9.274;2024-01-30T00:01:04;-0.40;99.90
19755;DHT22;10036;47.812;9.274;2024-01-30T00:03:30;-0.40;99.90
19755;DHT22;10036;47.812;9.274;2024-01-30T00:05:57;-0.40;99.90
19755;DHT22;10036;47.812;9.274;2024-01-30T00:08:26;-0.50;99.90
19755;DHT22;10036;47.812;9.274;2024-01-30T00:10:53;-0.40;99.90
19755;DHT22;10036;47.812;9.274;2024-01-30T00:13:20;-0.50;99.90
19755;DHT22;10036;47.812;9.274;2024-01-30T00:15:48;-0.50;99.90
19755;DHT22;10036;47.812;9.274;2024-01-30T00:18:15;-0.60;99.90
19755;DHT22;10036;47.812;9.274;2024-01-30T00:20:41;-0.50;99.90
19755;DHT22;10036;47.812;9.274;2024-01-30T00:23:09;-0.40;99.90
19755;DHT22;10036;47.812;9.274;2024-01-30T00:25:37;-0.50;99.90
19755;DHT22;10036;47.812;9.274;2024-01-30T00:28:04;-0.70;99.90
19755;DHT22;10036;47.812;9.274;2024-01-30T00:30:31;-0.80;99.90
19755;DHT22;10036;47.812;9.274;2024-01-30T00:32:58;-0.80;99.90
19755;DHT22;10036;47.812;9.274;2024-01-30T00:35:25;-0.80;99.90
19755;DHT22;10036;47.812;9.274;2024-01-30T00:37:52;-0.80;99.90
19755;DHT22;10036;47.812;9.274;2024-01-30T00:40:19;-0.70;99.90
19755;DHT22;10036;47.812;9.274;2024-01-30T00:42:47;-0.70;99.90
19755;DHT22;10036;47.812;9.274;2024-01-30T00:45:14;-0.70;99.90
19755;DHT22;10036;47.812;9.274;2024-01-30T00:47:42;-0.70;99.90
19755;DHT22;10036;47.812;9.274;2024-01-30T00:50:09;-0.70;99.90
19755;DHT22;10036;47.812;9.274;2024-01-30T00:52:36;-0.70;99.90
19755;DHT22;10036;47.812;9.274;2024-01-30T00:55:05;-0.80;99.90
19755;DHT22;10036;47.812;9.274;2024-01-30T00:57:32;-0.90;99.90
19755;DHT22;10036;47.812;9.274;2024-01-30T01:00:00;-0.80;99.90
19755;DHT22;10036;47.812;9.274;2024-01-30T01:02:27;-0.80;99.90
19755;DHT22;10036;47.812;9.274;2024-01-30T01:04:54;-0.80;99.90
19755;DHT22;10036;47.812;9.274;2024-01-30T01:07:21;-0.70;99.90
19755;DHT22;10036;47.812;9.274;2024-01-30T01:09:47;-0.70;99.90
19755;DHT22;10036;47.812;9.274;2024-01-30T01:12:14;-0.80;99.90
19755;DHT22;10036;47.812;9.274;2024-01-30T01:14:41;-0.80;99.90
19755;DHT22;10036;47.812;9.274;2024-01-30T01:17:09;-1.00;99.90
19755;DHT22;10036;47.812;9.274;2024-01-30T01:19:36;-1.00;99.90
19755;DHT22;10036;47.812;9.274;2024-01-30T01:22:03;-0.90;99.90
19755;DHT22;10036;47.812;9.274;2024-01-30T01:24:31;-0.90;99.90
19755;DHT22;10036;47.812;9.274;2024-01-30T01:26:58;-1.00;99.90
19755;DHT22;10036;47.812;9.274;2024-01-30T01:29:25;-0.90;99.90
19755;DHT22;10036;47.812;9.274;2024-01-30T01:31:54;-0.80;99.90
19755;DHT22;10036;47.812;9.274;2024-01-30T01:34:23;-0.80;99.90
19755;DHT22;10036;47.812;9.274;2024-01-30T01:36:50;-1.10;99.90
19755;DHT22;10036;47.812;9.274;2024-01-30T01:39:21;-1.00;99.90
19755;DHT22;10036;47.812;9.274;2024-01-30T01:41:49;-0.80;99.90
19755;DHT22;10036;47.812;9.274;2024-01-30T01:44:16;-0.80;99.90
19755;DHT22;10036;47.812;9.274;2024-01-30T01:46:44;-0.80;99.90
19755;DHT22;10036;47.812;9.274;2024-01-30T01:49:11;-0.90;99.90
19755;DHT22;10036;47.812;9.274;2024-01-30T01:51:39;-0.90;99.90
19755;DHT22;10036;47.812;9.274;2024-01-30T01:54:08;-0.90;99.90
19755;DHT22;10036;47.812;9.274;2024-01-30T01:56:35;-0.90;99.90
19755;DHT22;10036;47.812;9.274;2024-01-30T01:59:06;-0.70;99.90
19755;DHT22;10036;47.812;9.274;2024-01-30T02:01:34;-0.80;99.90
19755;DHT22;10036;47.812;9.274;2024-01-30T02:04:01;-0.90;99.90
19755;DHT22;10036;47.812;9.274;2024-01-30T02:06:28;-0.90;99.90
19755;DHT22;10036;47.812;9.274;2024-01-30T02:08:56;-0.90;99.90
19755;DHT22;10036;47.812;9.274;2024-01-30T02:11:23;-0.90;99.90
19755;DHT22;10036;47.812;9.274;2024-01-30T02:13:50;-1.10;99.90
19755;DHT22;10036;47.812;9.274;2024-01-30T02:16:17;-1.10;99.90
19755;DHT22;10036;47.812;9.274;2024-01-30T02:18:44;-1.10;99.90
19755;DHT22;10036;47.812;9.274;2024-01-30T02:21:15;-1.10;99.90
19755;DHT22;10036;47.812;9.274;2024-01-30T02:23:43;-0.90;99.90
19755;DHT22;10036;47.812;9.274;2024-01-30T02:26:10;-1.00;99.90
19755;DHT22;10036;47.812;9.274;2024-01-30T02:28:38;-1.10;99.90
19755;DHT22;10036;47.812;9.274;2024-01-30T02:31:05;-1.10;99.90
19755;DHT22;10036;47.812;9.274;2024-01-30T02:33:32;-1.00;99.90
19755;DHT22;10036;47.812;9.274;2024-01-30T02:35:59;-1.00;99.90
19755;DHT22;10036;47.812;9.274;2024-01-30T02:38:27;-1.00;99.90
19755;DHT22;10036;47.812;9.274;2024-01-30T02:40:54;-1.00;99.90
19755;DHT22;10036;47.812;9.274;2024-01-30T02:43:22;-1.00;99.90
19755;DHT22;10036;47.812;9.274;2024-01-30T02:45:49;-1.20;99.90
19755;DHT22;10036;47.812;9.274;2024-01-30T02:48:16;-1.20;99.90
19755;DHT22;10036;47.812;9.274;2024-01-30T02:50:43;-1.10;99.90
19755;DHT22;10036;47.812;9.274;2024-01-30T02:53:09;-1.30;99.90
19755;DHT22;10036;47.812;9.274;2024-01-30T02:55:38;-1.30;99.90
19755;DHT22;10036;47.812;9.274;2024-01-30T02:58:04;-1.20;99.90
19755;DHT22;10036;47.812;9.274;2024-01-30T03:00:32;-1.20;99.90
19755;DHT22;10036;47.812;9.274;2024-01-30T03:02:59;-1.20;99.90
19755;DHT22;10036;47.812;9.274;2024-01-30T03:05:28;-1.30;99.90
19755;DHT22;10036;47.812;9.274;2024-01-30T03:07:55;-1.30;99.90
19755;DHT22;10036;47.812;9.274;2024-01-30T03:10:22;-1.30;99.90
19755;DHT22;10036;47.812;9.274;2024-01-30T03:12:50;-1.40;99.90
19755;DHT22;10036;47.812;9.274;2024-01-30T03:15:17;-1.40;99.90
19755;DHT22;10036;47.812;9.274;2024-01-30T03:17:44;-1.30;99.90
19755;DHT22;10036;47.812;9.274;2024-01-30T03:20:11;-1.30;99.90
19755;DHT22;10036;47.812;9.274;2024-01-30T03:22:38;-1.40;99.90
19755;DHT22;10036;47.812;9.274;2024-01-30T03:25:05;-1.30;99.90
19755;DHT22;10036;47.812;9.274;2024-01-30T03:27:32;-1.30;99.90
19755;DHT22;10036;47.812;9.274;2024-01-30T03:30:00;-1.30;99.90
19755;DHT22;10036;47.812;9.274;2024-01-30T03:32:27;-1.40;99.90
19755;DHT22;10036;47.812;9.274;2024-01-30T03:34:54;-1.50;99.90
19755;DHT22;10036;47.812;9.274;2024-01-30T03:37:21;-1.40;99.90
19755;DHT22;10036;47.812;9.274;2024-01-30T03:39:48;-1.40;99.90
19755;DHT22;10036;47.812;9.274;2024-01-30T03:42:15;-1.40;99.90
19755;DHT22;10036;47.812;9.274;2024-01-30T03:44:42;-1.40;99.90
19755;DHT22;10036;47.812;9.274;2024-01-30T03:47:11;-1.30;99.90
19755;DHT22;10036;47.812;9.274;2024-01-30T03:49:38;-1.40;99.90
19755;DHT22;10036;47.812;9.274;2024-01-30T03:52:05;-1.40;99.90
19755;DHT22;10036;47.812;9.274;2024-01-30T03:54:31;-1.50;99.90
19755;DHT22;10036;47.812;9.274;2024-01-30T03:56:58;-1.40;99.90
19755;DHT22;10036;47.812;9.274;2024-01-30T03:59:25;-1.40;99.90
19755;DHT22;10036;47.812;9.274;2024-01-30T04:01:52;-1.40;99.90
19755;DHT22;10036;47.812;9.274;2024-01-30T04:04:20;-1.20;99.90
19755;DHT22;10036;47.812;9.274;2024-01-30T04:06:47;-1.40;99.90
19755;DHT22;10036;47.812;9.274;2024-01-30T04:09:14;-1.40;99.90
19755;DHT22;10036;47.812;9.274;2024-01-30T04:11:41;-1.50;99.90
19755;DHT22;10036;47.812;9.274;2024-01-30T04:14:08;-1.50;99.90
19755;DHT22;10036;47.812;9.274;2024-01-30T04:16:35;-1.50;99.90
19755;DHT22;10036;47.812;9.274;2024-01-30T04:19:02;-1.50;99.90
19755;DHT22;10036;47.812;9.274;2024-01-30T04:21:30;-1.50;99.90
19755;DHT22;10036;47.812;9.274;2024-01-30T04:23:57;-1.70;99.90
19755;DHT22;10036;47.812;9.274;2024-01-30T04:26:24;-1.60;99.90
19755;DHT22;10036;47.812;9.274;2024-01-30T04:28:51;-1.60;99.90
19755;DHT22;10036;47.812;9.274;2024-01-30T04:31:18;-1.70;99.90
19755;DHT22;10036;47.812;9.274;2024-01-30T04:33:45;-1.60;99.90
19755;DHT22;10036;47.812;9.274;2024-01-30T04:36:12;-1.60;99.90
19755;DHT22;10036;47.812;9.274;2024-01-30T04:38:40;-1.60;99.90
19755;DHT22;10036;47.812;9.274;2024-01-30T04:41:07;-1.50;99.90
19755;DHT22;10036;47.812;9.274;2024-01-30T04:43:34;-1.60;99.90
19755;DHT22;10036;47.812;9.274;2024-01-30T04:46:01;-1.60;99.90
19755;DHT22;10036;47.812;9.274;2024-01-30T04:48:28;-1.60;99.90
19755;DHT22;10036;47.812;9.274;2024-01-30T04:50:55;-1.70;99.90
19755;DHT22;10036;47.812;9.274;2024-01-30T04:53:22;-1.60;99.90
19755;DHT22;10036;47.812;9.274;2024-01-30T04:55:50;-1.70;99.90
19755;DHT22;10036;47.812;9.274;2024-01-30T04:58:17;-1.80;99.90
19755;DHT22;10036;47.812;9.274;2024-01-30T05:00:44;-2.00;99.90
19755;DHT22;10036;47.812;9.274;2024-01-30T05:03:11;-2.00;99.90
19755;DHT22;10036;47.812;9.274;2024-01-30T05:05:38;-2.00;99.90
19755;DHT22;10036;47.812;9.274;2024-01-30T05:08:05;-1.90;99.90
19755;DHT22;10036;47.812;9.274;2024-01-30T05:10:32;-1.90;99.90
19755;DHT22;10036;47.812;9.274;2024-01-30T05:13:01;-1.70;99.90
19755;DHT22;10036;47.812;9.274;2024-01-30T05:15:27;-1.90;99.90
19755;DHT22;10036;47.812;9.274;2024-01-30T05:17:54;-1.80;99.90
19755;DHT22;10036;47.812;9.274;2024-01-30T05:20:21;-1.80;99.90
19755;DHT22;10036;47.812;9.274;2024-01-30T05:22:48;-1.80;99.90
19755;DHT22;10036;47.812;9.274;2024-01-30T05:25:15;-1.90;99.90
19755;DHT22;10036;47.812;9.274;2024-01-30T05:27:42;-1.90;99.90
19755;DHT22;10036;47.812;9.274;2024-01-30T05:30:11;-1.90;99.90
19755;DHT22;10036;47.812;9.274;2024-01-30T05:32:38;-2.00;99.90
19755;DHT22;10036;47.812;9.274;2024-01-30T05:35:05;-2.00;99.90
19755;DHT22;10036;47.812;9.274;2024-01-30T05:37:33;-1.90;99.90
19755;DHT22;10036;47.812;9.274;2024-01-30T05:40:00;-2.00;99.90
19755;DHT22;10036;47.812;9.274;2024-01-30T05:42:27;-1.90;99.90
19755;DHT22;10036;47.812;9.274;2024-01-30T05:44:54;-2.00;99.90
19755;DHT22;10036;47.812;9.274;2024-01-30T05:47:22;-1.90;99.90
19755;DHT22;10036;47.812;9.274;2024-01-30T05:49:49;-1.90;99.90
19755;DHT22;10036;47.812;9.274;2024-01-30T05:52:16;-1.80;99.90
19755;DHT22;10036;47.812;9.274;2024-01-30T05:54:44;-1.90;99.90
19755;DHT22;10036;47.812;9.274;2024-01-30T05:57:11;-1.90;99.90
19755;DHT22;10036;47.812;9.274;2024-01-30T05:59:38;-1.90;99.90
19755;DHT22;10036;47.812;9.274;2024-01-30T06:02:04;-1.80;99.90
19755;DHT22;10036;47.812;9.274;2024-01-30T06:04:33;-1.90;99.90
19755;DHT22;10036;47.812;9.274;2024-01-30T06:06:59;-1.90;99.90
19755;DHT22;10036;47.812;9.274;2024-01-30T06:09:27;-2.00;99.90
19755;DHT22;10036;47.812;9.274;2024-01-30T06:11:54;-1.90;99.90
19755;DHT22;10036;47.812;9.274;2024-01-30T06:14:21;-1.90;99.90
19755;DHT22;10036;47.812;9.274;2024-01-30T06:16:48;-2.00;99.90
19755;DHT22;10036;47.812;9.274;2024-01-30T06:19:15;-2.00;99.90
19755;DHT22;10036;47.812;9.274;2024-01-30T06:21:44;-2.00;99.90
19755;DHT22;10036;47.812;9.274;2024-01-30T06:24:11;-2.10;99.90
19755;DHT22;10036;47.812;9.274;2024-01-30T06:26:38;-2.00;99.90
19755;DHT22;10036;47.812;9.274;2024-01-30T06:29:05;-2.10;99.90
19755;DHT22;10036;47.812;9.274;2024-01-30T06:31:33;-2.10;99.90
19755;DHT22;10036;47.812;9.274;2024-01-30T06:34:00;-2.00;99.90
19755;DHT22;10036;47.812;9.274;2024-01-30T06:36:26;-2.10;99.90
19755;DHT22;10036;47.812;9.274;2024-01-30T06:38:55;-2.10;99.90
19755;DHT22;10036;47.812;9.274;2024-01-30T06:41:22;-2.10;99.90
19755;DHT22;10036;47.812;9.274;2024-01-30T06:43:49;-2.00;99.90
19755;DHT22;10036;47.812;9.274;2024-01-30T06:46:16;-2.10;99.90
19755;DHT22;10036;47.812;9.274;2024-01-30T06:48:43;-2.20;99.90
19755;DHT22;10036;47.812;9.274;2024-01-30T06:51:10;-2.10;99.90
19755;DHT22;10036;47.812;9.274;2024-01-30T06:53:37;-2.10;99.90
19755;DHT22;10036;47.812;9.274;2024-01-30T06:56:06;-2.20;99.90
19755;DHT22;10036;47.812;9.274;2024-01-30T06:58:33;-2.20;99.90
19755;DHT22;10036;47.812;9.274;2024-01-30T07:01:00;-2.20;99.90
19755;DHT22;10036;47.812;9.274;2024-01-30T07:03:27;-2.20;99.90
19755;DHT22;10036;47.812;9.274;2024-01-30T07:05:54;-2.20;99.90
19755;DHT22;10036;47.812;9.274;2024-01-30T07:08:21;-2.20;99.90
19755;DHT22;10036;47.812;9.274;2024-01-30T07:10:48;-2.20;99.90
19755;DHT22;10036;47.812;9.274;2024-01-30T07:13:16;-2.20;99.90
19755;DHT22;10036;47.812;9.274;2024-01-30T07:15:43;-2.10;99.90
19755;DHT22;10036;47.812;9.274;2024-01-30T07:18:10;-2.10;99.90
19755;DHT22;10036;47.812;9.274;2024-01-30T07:20:39;-2.10;99.90
19755;DHT22;10036;47.812;9.274;2024-01-30T07:23:08;-2.00;99.90
19755;DHT22;10036;47.812;9.274;2024-01-30T07:25:36;-2.10;99.90
19755;DHT22;10036;47.812;9.274;2024-01-30T07:28:04;-2.00;99.90
19755;DHT22;10036;47.812;9.274;2024-01-30T07:30:32;-2.00;99.90
19755;DHT22;10036;47.812;9.274;2024-01-30T07:32:59;-1.90;99.90
19755;DHT22;10036;47.812;9.274;2024-01-30T07:35:26;-1.90;99.90
19755;DHT22;10036;47.812;9.274;2024-01-30T07:37:53;-1.90;99.90
19755;DHT22;10036;47.812;9.274;2024-01-30T07:40:20;-1.90;99.90
19755;DHT22;10036;47.812;9.274;2024-01-30T07:42:48;-1.90;99.90
19755;DHT22;10036;47.812;9.274;2024-01-30T07:45:15;-1.80;99.90
19755;DHT22;10036;47.812;9.274;2024-01-30T07:47:48;-1.90;99.90
19755;DHT22;10036;47.812;9.274;2024-01-30T07:50:15;-1.80;99.90
19755;DHT22;10036;47.812;9.274;2024-01-30T07:52:42;-1.70;99.90
19755;DHT22;10036;47.812;9.274;2024-01-30T07:55:09;-1.70;99.90
19755;DHT22;10036;47.812;9.274;2024-01-30T07:57:38;-1.70;99.90
19755;DHT22;10036;47.812;9.274;2024-01-30T08:00:06;-1.60;99.90
19755;DHT22;10036;47.812;9.274;2024-01-30T08:02:33;-1.60;99.90
19755;DHT22;10036;47.812;9.274;2024-01-30T08:05:02;-1.60;99.90
19755;DHT22;10036;47.812;9.274;2024-01-30T08:07:29;-1.50;99.90
19755;DHT22;10036;47.812;9.274;2024-01-30T08:09:56;-1.50;99.90
19755;DHT22;10036;47.812;9.274;2024-01-30T08:12:23;-1.50;99.90
19755;DHT22;10036;47.812;9.274;2024-01-30T08:14:50;-1.40;99.90
19755;DHT22;10036;47.812;9.274;2024-01-30T08:17:17;-1.40;99.90
19755;DHT22;10036;47.812;9.274;2024-01-30T08:19:43;-1.40;99.90
19755;DHT22;10036;47.812;9.274;2024-01-30T08:22:12;-1.30;99.90
19755;DHT22;10036;47.812;9.274;2024-01-30T08:24:40;-1.20;99.90
19755;DHT22;10036;47.812;9.274;2024-01-30T08:27:07;-1.00;99.90
19755;DHT22;10036;47.812;9.274;2024-01-30T08:29:35;-1.00;99.90
19755;DHT22;10036;47.812;9.274;2024-01-30T08:32:02;-1.10;99.90
19755;DHT22;10036;47.812;9.274;2024-01-30T08:34:29;-0.90;99.90
19755;DHT22;10036;47.812;9.274;2024-01-30T08:36:56;-1.00;99.90
19755;DHT22;10036;47.812;9.274;2024-01-30T08:39:24;-0.90;99.90
19755;DHT22;10036;47.812;9.274;2024-01-30T08:41:51;-0.90;99.90
19755;DHT22;10036;47.812;9.274;2024-01-30T08:44:19;-0.80;99.90
19755;DHT22;10036;47.812;9.274;2024-01-30T08:46:46;-0.80;99.90
19755;DHT22;10036;47.812;9.274;2024-01-30T08:49:13;-0.80;99.90
19755;DHT22;10036;47.812;9.274;2024-01-30T08:51:42;-0.70;99.90
19755;DHT22;10036;47.812;9.274;2024-01-30T08:54:09;-0.80;99.90
19755;DHT22;10036;47.812;9.274;2024-01-30T08:56:37;-0.80;99.90
19755;DHT22;10036;47.812;9.274;2024-01-30T08:59:04;-0.80;99.90
19755;DHT22;10036;47.812;9.274;2024-01-30T09:01:31;-0.80;99.90
19755;DHT22;10036;47.812;9.274;2024-01-30T09:03:58;-0.70;99.90
19755;DHT22;10036;47.812;9.274;2024-01-30T09:06:25;-0.70;99.90
19755;DHT22;10036;47.812;9.274;2024-01-30T09:08:53;-0.60;99.90
19755;DHT22;10036;47.812;9.274;2024-01-30T09:11:20;-0.60;99.90
19755;DHT22;10036;47.812;9.274;2024-01-30T09:13:48;-0.50;99.90
19755;DHT22;10036;47.812;9.274;2024-01-30T09:16:15;-0.50;99.90
19755;DHT22;10036;47.812;9.274;2024-01-30T09:18:42;-0.50;99.90
19755;DHT22;10036;47.812;9.274;2024-01-30T09:21:10;-0.50;99.90
19755;DHT22;10036;47.812;9.274;2024-01-30T09:23:37;-0.30;99.90
19755;DHT22;10036;47.812;9.274;2024-01-30T09:26:04;-0.20;99.90
19755;DHT22;10036;47.812;9.274;2024-01-30T09:28:31;-0.20;99.90
19755;DHT22;10036;47.812;9.274;2024-01-30T09:30:59;-0.20;99.90
19755;DHT22;10036;47.812;9.274;2024-01-30T09:33:26;-0.10;99.90
19755;DHT22;10036;47.812;9.274;2024-01-30T09:35:53;0.00;99.90
19755;DHT22;10036;47.812;9.274;2024-01-30T09:38:20;0.00;99.90
19755;DHT22;10036;47.812;9.274;2024-01-30T09:40:54;0.20;99.90
19755;DHT22;10036;47.812;9.274;2024-01-30T09:43:22;0.40;99.90
19755;DHT22;10036;47.812;9.274;2024-01-30T09:45:50;0.40;99.90
19755;DHT22;10036;47.812;9.274;2024-01-30T09:48:19;0.40;99.90
19755;DHT22;10036;47.812;9.274;2024-01-30T09:50:46;0.50;99.90
19755;DHT22;10036;47.812;9.274;2024-01-30T09:53:13;0.50;99.90
19755;DHT22;10036;47.812;9.274;2024-01-30T09:55:43;0.50;99.90
19755;DHT22;10036;47.812;9.274;2024-01-30T09:58:12;0.60;99.90
19755;DHT22;10036;47.812;9.274;2024-01-30T10:00:39;0.70;99.90
19755;DHT22;10036;47.812;9.274;2024-01-30T10:03:06;0.70;99.90
19755;DHT22;10036;47.812;9.274;2024-01-30T10:05:35;0.90;99.90
19755;DHT22;10036;47.812;9.274;2024-01-30T10:08:06;0.80;99.90
19755;DHT22;10036;47.812;9.274;2024-01-30T10:10:33;0.90;99.90
19755;DHT22;10036;47.812;9.274;2024-01-30T10:13:00;1.00;99.90
19755;DHT22;10036;47.812;9.274;2024-01-30T10:15:28;0.90;99.90
19755;DHT22;10036;47.812;9.274;2024-01-30T10:17:55;0.90;99.90
19755;DHT22;10036;47.812;9.274;2024-01-30T10:20:22;1.00;99.90
19755;DHT22;10036;47.812;9.274;2024-01-30T10:22:52;1.10;99.90
19755;DHT22;10036;47.812;9.274;2024-01-30T10:25:21;1.20;99.90
19755;DHT22;10036;47.812;9.274;2024-01-30T10:27:52;1.20;99.90
19755;DHT22;10036;47.812;9.274;2024-01-30T10:30:20;1.40;99.90
19755;DHT22;10036;47.812;9.274;2024-01-30T10:32:47;1.30;99.90
19755;DHT22;10036;47.812;9.274;2024-01-30T10:35:15;1.30;99.90
19755;DHT22;10036;47.812;9.274;2024-01-30T10:37:43;1.40;99.90
19755;DHT22;10036;47.812;9.274;2024-01-30T10:40:13;1.40;99.90
19755;DHT22;10036;47.812;9.274;2024-01-30T10:42:44;1.50;99.90
19755;DHT22;10036;47.812;9.274;2024-01-30T10:45:12;1.60;99.90
19755;DHT22;10036;47.812;9.274;2024-01-30T10:47:44;1.70;99.90
19755;DHT22;10036;47.812;9.274;2024-01-30T10:50:12;1.80;99.90
19755;DHT22;10036;47.812;9.274;2024-01-30T10:52:40;2.00;99.90
19755;DHT22;10036;47.812;9.274;2024-01-30T10:55:08;2.00;99.90
19755;DHT22;10036;47.812;9.274;2024-01-30T10:57:36;2.10;99.90
19755;DHT22;10036;47.812;9.274;2024-01-30T11:00:06;2.30;99.90
19755;DHT22;10036;47.812;9.274;2024-01-30T11:02:36;2.20;99.90
19755;DHT22;10036;47.812;9.274;2024-01-30T11:05:05;2.40;99.90
19755;DHT22;10036;47.812;9.274;2024-01-30T11:07:32;2.40;99.90
19755;DHT22;10036;47.812;9.274;2024-01-30T11:10:03;2.50;99.90
19755;DHT22;10036;47.812;9.274;2024-01-30T11:12:31;2.50;99.90
19755;DHT22;10036;47.812;9.274;2024-01-30T11:15:04;2.60;99.90
19755;DHT22;10036;47.812;9.274;2024-01-30T11:17:42;2.70;99.90
19755;DHT22;10036;47.812;9.274;2024-01-30T11:20:10;2.80;99.90
19755;DHT22;10036;47.812;9.274;2024-01-30T11:22:44;2.80;99.90
19755;DHT22;10036;47.812;9.274;2024-01-30T11:25:13;2.80;99.90
19755;DHT22;10036;47.812;9.274;2024-01-30T11:27:42;3.00;99.90
19755;DHT22;10036;47.812;9.274;2024-01-30T11:30:11;3.10;99.90
19755;DHT22;10036;47.812;9.274;2024-01-30T11:32:57;3.10;99.90
19755;DHT22;10036;47.812;9.274;2024-01-30T11:35:24;3.20;99.90
19755;DHT22;10036;47.812;9.274;2024-01-30T11:37:52;3.20;99.90
19755;DHT22;10036;47.812;9.274;2024-01-30T11:40:21;3.30;99.90
19755;DHT22;10036;47.812;9.274;2024-01-30T11:42:49;3.30;99.90
19755;DHT22;10036;47.812;9.274;2024-01-30T11:45:18;3.40;99.90
19755;DHT22;10036;47.812;9.274;2024-01-30T11:47:45;3.50;99.90
19755;DHT22;10036;47.812;9.274;2024-01-30T11:50:13;3.50;99.90
19755;DHT22;10036;47.812;9.274;2024-01-30T11:52:40;3.70;99.90
19755;DHT22;10036;47.812;9.274;2024-01-30T11:55:07;3.70;99.90
19755;DHT22;10036;47.812;9.274;2024-01-30T11:57:35;3.80;99.90
19755;DHT22;10036;47.812;9.274;2024-01-30T12:00:03;3.80;99.90
19755;DHT22;10036;47.812;9.274;2024-01-30T12:02:35;3.90;99.90
19755;DHT22;10036;47.812;9.274;2024-01-30T12:05:04;4.00;99.90
19755;DHT22;10036;47.812;9.274;2024-01-30T12:07:31;4.00;99.90
19755;DHT22;10036;47.812;9.274;2024-01-30T12:09:58;4.00;99.90
19755;DHT22;10036;47.812;9.274;2024-01-30T12:12:25;4.10;99.90
19755;DHT22;10036;47.812;9.274;2024-01-30T12:14:53;4.10;99.90
19755;DHT22;10036;47.812;9.274;2024-01-30T12:17:24;4.20;99.90
19755;DHT22;10036;47.812;9.274;2024-01-30T12:20:02;4.30;99.90
19755;DHT22;10036;47.812;9.274;2024-01-30T12:22:29;4.50;99.90
19755;DHT22;10036;47.812;9.274;2024-01-30T12:24:56;4.50;99.90
19755;DHT22;10036;47.812;9.274;2024-01-30T12:27:23;4.60;99.90
19755;DHT22;10036;47.812;9.274;2024-01-30T12:29:55;4.70;99.90
19755;DHT22;10036;47.812;9.274;2024-01-30T12:32:23;4.70;99.90
19755;DHT22;10036;47.812;9.274;2024-01-30T12:34:54;4.70;99.90
19755;DHT22;10036;47.812;9.274;2024-01-30T12:37:20;4.70;99.90
19755;DHT22;10036;47.812;9.274;2024-01-30T12:39:51;4.70;99.90
19755;DHT22;10036;47.812;9.274;2024-01-30T12:42:18;4.80;99.90
19755;DHT22;10036;47.812;9.274;2024-01-30T12:44:46;4.80;99.90
19755;DHT22;10036;47.812;9.274;2024-01-30T12:47:12;5.00;99.90
19755;DHT22;10036;47.812;9.274;2024-01-30T12:49:41;5.00;99.90
19755;DHT22;10036;47.812;9.274;2024-01-30T12:52:10;5.00;99.90
19755;DHT22;10036;47.812;9.274;2024-01-30T12:54:37;4.90;99.90
19755;DHT22;10036;47.812;9.274;2024-01-30T12:57:04;4.80;99.90
19755;DHT22;10036;47.812;9.274;2024-01-30T12:59:31;4.90;99.90
19755;DHT22;10036;47.812;9.274;2024-01-30T13:02:00;5.00;99.90
19755;DHT22;10036;47.812;9.274;2024-01-30T13:04:28;5.00;99.90
19755;DHT22;10036;47.812;9.274;2024-01-30T13:06:55;5.00;99.90
19755;DHT22;10036;47.812;9.274;2024-01-30T13:09:24;5.00;99.90
19755;DHT22;10036;47.812;9.274;2024-01-30T13:11:51;5.00;99.90
19755;DHT22;10036;47.812;9.274;2024-01-30T13:14:18;5.00;99.90
19755;DHT22;10036;47.812;9.274;2024-01-30T13:16:45;5.20;99.90
19755;DHT22;10036;47.812;9.274;2024-01-30T13:19:12;5.10;99.90
19755;DHT22;10036;47.812;9.274;2024-01-30T13:21:38;5.10;99.90
19755;DHT22;10036;47.812;9.274;2024-01-30T13:24:07;5.20;99.90
19755;DHT22;10036;47.812;9.274;2024-01-30T13:26:35;5.20;99.90
19755;DHT22;10036;47.812;9.274;2024-01-30T13:29:02;5.20;99.90
19755;DHT22;10036;47.812;9.274;2024-01-30T13:31:30;5.10;99.90
19755;DHT22;10036;47.812;9.274;2024-01-30T13:33:57;5.10;99.90
19755;DHT22;10036;47.812;9.274;2024-01-30T13:36:24;5.00;99.90
19755;DHT22;10036;47.812;9.274;2024-01-30T13:38:51;5.10;99.90
19755;DHT22;10036;47.812;9.274;2024-01-30T13:41:18;5.20;99.90
19755;DHT22;10036;47.812;9.274;2024-01-30T13:43:47;5.30;99.90
19755;DHT22;10036;47.812;9.274;2024-01-30T13:46:14;5.40;99.90
19755;DHT22;10036;47.812;9.274;2024-01-30T13:48:41;5.30;99.90
19755;DHT22;10036;47.812;9.274;2024-01-30T13:51:08;5.30;99.90
19755;DHT22;10036;47.812;9.274;2024-01-30T13:53:36;5.30;99.90
19755;DHT22;10036;47.812;9.274;2024-01-30T13:56:03;5.20;99.90
19755;DHT22;10036;47.812;9.274;2024-01-30T13:58:31;5.20;99.90
19755;DHT22;10036;47.812;9.274;2024-01-30T14:01:01;5.20;99.90
19755;DHT22;10036;47.812;9.274;2024-01-30T14:03:28;5.20;99.90
19755;DHT22;10036;47.812;9.274;2024-01-30T14:05:55;5.30;99.90
19755;DHT22;10036;47.812;9.274;2024-01-30T14:08:22;5.40;99.90
19755;DHT22;10036;47.812;9.274;2024-01-30T14:10:52;5.40;99.90
19755;DHT22;10036;47.812;9.274;2024-01-30T14:13:19;5.40;99.90
19755;DHT22;10036;47.812;9.274;2024-01-30T14:15:46;5.50;99.90
19755;DHT22;10036;47.812;9.274;2024-01-30T14:18:14;5.60;99.90
19755;DHT22;10036;47.812;9.274;2024-01-30T14:20:41;5.60;99.90
19755;DHT22;10036;47.812;9.274;2024-01-30T14:23:08;5.70;99.90
19755;DHT22;10036;47.812;9.274;2024-01-30T14:25:35;5.70;99.90
19755;DHT22;10036;47.812;9.274;2024-01-30T14:28:02;5.80;99.90
19755;DHT22;10036;47.812;9.274;2024-01-30T14:30:29;5.70;99.90
19755;DHT22;10036;47.812;9.274;2024-01-30T14:32:56;5.60;99.90
19755;DHT22;10036;47.812;9.274;2024-01-30T14:35:24;5.70;99.90
19755;DHT22;10036;47.812;9.274;2024-01-30T14:37:51;5.80;99.90
19755;DHT22;10036;47.812;9.274;2024-01-30T14:40:19;5.80;99.90
19755;DHT22;10036;47.812;9.274;2024-01-30T14:42:46;5.80;99.90
19755;DHT22;10036;47.812;9.274;2024-01-30T14:45:13;5.80;99.90
19755;DHT22;10036;47.812;9.274;2024-01-30T14:47:41;5.70;99.90
19755;DHT22;10036;47.812;9.274;2024-01-30T14:50:08;5.90;99.90
19755;DHT22;10036;47.812;9.274;2024-01-30T14:52:36;5.80;99.90
19755;DHT22;10036;47.812;9.274;2024-01-30T14:55:05;5.70;99.90
19755;DHT22;10036;47.812;9.274;2024-01-30T14:57:33;5.60;99.90
19755;DHT22;10036;47.812;9.274;2024-01-30T15:00:00;5.50;99.90
19755;DHT22;10036;47.812;9.274;2024-01-30T15:02:27;5.50;99.90
19755;DHT22;10036;47.812;9.274;2024-01-30T15:04:54;5.40;99.90
19755;DHT22;10036;47.812;9.274;2024-01-30T15:07:21;5.30;99.90
19755;DHT22;10036;47.812;9.274;2024-01-30T15:09:50;5.30;99.90
19755;DHT22;10036;47.812;9.274;2024-01-30T15:12:16;5.40;99.90
19755;DHT22;10036;47.812;9.274;2024-01-30T15:14:43;5.30;99.90
19755;DHT22;10036;47.812;9.274;2024-01-30T15:17:16;5.40;99.90
19755;DHT22;10036;47.812;9.274;2024-01-30T15:19:43;5.20;99.90
19755;DHT22;10036;47.812;9.274;2024-01-30T15:22:10;5.10;99.90
19755;DHT22;10036;47.812;9.274;2024-01-30T15:24:37;5.00;99.90
19755;DHT22;10036;47.812;9.274;2024-01-30T15:27:05;5.00;99.90
19755;DHT22;10036;47.812;9.274;2024-01-30T15:29:32;4.90;99.90
19755;DHT22;10036;47.812;9.274;2024-01-30T15:31:59;4.90;99.90
19755;DHT22;10036;47.812;9.274;2024-01-30T15:34:26;4.90;99.90
19755;DHT22;10036;47.812;9.274;2024-01-30T15:36:53;4.80;99.90
19755;DHT22;10036;47.812;9.274;2024-01-30T15:39:20;4.80;99.90